Time;durP1;ratioP1;P1;durP2;ratioP2;P2;SDS_P1;SDS_P2;PMS_P1;PMS_P2;Temp;Humidity;BMP_temperature;BMP_pressure;BME280_temperature;BME280_humidity;BME280_pressure;Samples;Min_cycle;Max_cycle;Signal;HPM_P1;HPM_P2
2023/12/19 00:00:45;;;;;;;1.17;0.80;;;3.00;99.90;;;;;;5055023;28;20462;-80
2023/12/19 00:03:13;;;;;;;0.73;0.60;;;3.00;99.90;;;;;;5055163;28;20798;-79
2023/12/19 00:05:40;;;;;;;2.33;1.63;;;3.00;99.90;;;;;;5055071;28;20477;-80
2023/12/19 00:08:08;;;;;;;4.50;1.37;;;3.10;99.90;;;;;;5055097;28;20539;-80
2023/12/19 00:10:34;;;;;;;1.10;1.10;;;3.10;99.90;;;;;;5056096;28;20445;-80
2023/12/19 00:13:02;;;;;;;1.50;1.40;;;3.00;99.90;;;;;;5055083;28;20435;-80
2023/12/19 00:15:29;;;;;;;4.10;0.97;;;2.90;99.90;;;;;;5055448;28;20472;-80
2023/12/19 00:17:56;;;;;;;1.87;1.77;;;2.80;99.90;;;;;;5055694;28;20454;-81
2023/12/19 00:20:25;;;;;;;3.03;1.93;;;2.70;99.90;;;;;;5056180;28;20440;-80
2023/12/19 00:22:52;;;;;;;1.47;1.37;;;2.60;99.90;;;;;;5059010;28;20453;-80
2023/12/19 00:25:18;;;;;;;0.90;0.90;;;2.50;99.90;;;;;;5059098;28;20484;-79
2023/12/19 00:27:45;;;;;;;4.60;2.63;;;2.40;99.90;;;;;;5059787;28;20461;-79
2023/12/19 00:30:13;;;;;;;1.70;1.00;;;2.30;99.90;;;;;;5059482;28;20445;-79
2023/12/19 00:32:39;;;;;;;0.70;0.70;;;2.30;99.90;;;;;;5059829;28;20957;-79
2023/12/19 00:35:07;;;;;;;6.33;1.10;;;2.30;99.90;;;;;;5059438;28;20449;-80
2023/12/19 00:37:35;;;;;;;1.77;1.20;;;2.30;99.90;;;;;;5059252;28;20461;-80
2023/12/19 00:40:03;;;;;;;3.40;1.27;;;2.40;99.90;;;;;;5059631;28;20446;-79
2023/12/19 00:42:30;;;;;;;0.43;0.43;;;2.40;99.90;;;;;;5059454;28;21023;-80
2023/12/19 00:44:56;;;;;;;1.13;0.70;;;2.50;99.90;;;;;;5058936;28;20485;-81
2023/12/19 00:47:23;;;;;;;0.40;0.40;;;2.50;99.90;;;;;;5058423;28;21006;-81
2023/12/19 00:49:50;;;;;;;0.57;0.57;;;2.60;99.90;;;;;;5058670;28;20803;-80
2023/12/19 00:52:17;;;;;;;1.17;0.80;;;2.80;99.90;;;;;;5058822;28;20453;-79
2023/12/19 00:54:45;;;;;;;0.80;0.80;;;2.90;99.90;;;;;;5059434;28;20445;-80
2023/12/19 00:57:12;;;;;;;1.00;0.70;;;3.00;99.90;;;;;;5057882;28;20473;-80
2023/12/19 00:59:40;;;;;;;0.87;0.77;;;3.10;99.90;;;;;;5058534;28;20454;-79
2023/12/19 01:02:06;;;;;;;2.17;0.97;;;3.20;99.90;;;;;;5058615;28;20446;-80
2023/12/19 01:04:33;;;;;;;1.00;0.60;;;3.30;99.90;;;;;;5058188;28;20441;-80
2023/12/19 01:07:00;;;;;;;0.50;0.40;;;3.30;99.90;;;;;;5058597;28;20485;-80
2023/12/19 01:09:27;;;;;;;0.83;0.40;;;3.40;99.90;;;;;;5058579;28;20446;-81
2023/12/19 01:11:55;;;;;;;1.93;0.87;;;3.40;99.90;;;;;;5058377;28;20933;-80
2023/12/19 01:14:22;;;;;;;0.40;0.37;;;3.40;99.90;;;;;;5057994;28;20453;-81
2023/12/19 01:16:48;;;;;;;0.47;0.47;;;3.50;99.90;;;;;;5058215;28;20465;-81
2023/12/19 01:19:15;;;;;;;1.73;0.50;;;3.50;99.90;;;;;;5058071;28;20442;-80
2023/12/19 01:21:42;;;;;;;0.80;0.70;;;3.60;99.90;;;;;;5057868;28;20438;-80
2023/12/19 01:24:09;;;;;;;1.00;0.40;;;3.70;99.90;;;;;;5058117;28;20442;-81
2023/12/19 01:26:35;;;;;;;0.80;0.80;;;3.70;99.90;;;;;;5058021;28;20494;-81
2023/12/19 01:29:03;;;;;;;0.90;0.50;;;3.80;99.90;;;;;;5057904;28;20954;-80
2023/12/19 01:31:30;;;;;;;0.50;0.40;;;3.80;99.90;;;;;;5057711;28;20434;-81
2023/12/19 01:33:57;;;;;;;1.53;0.73;;;3.90;99.90;;;;;;5057797;28;20442;-81
2023/12/19 01:36:25;;;;;;;1.00;0.87;;;3.90;99.90;;;;;;5057069;28;20503;-82
2023/12/19 01:38:52;;;;;;;1.47;0.83;;;3.90;99.90;;;;;;5058011;28;20886;-81
2023/12/19 01:41:19;;;;;;;5.00;1.20;;;3.90;99.90;;;;;;5057729;28;20449;-81
2023/12/19 01:43:46;;;;;;;0.87;0.70;;;3.90;99.90;;;;;;5057521;28;20438;-81
2023/12/19 01:46:17;;;;;;;0.50;0.50;;;3.90;99.90;;;;;;5057431;28;21002;-81
2023/12/19 01:48:44;;;;;;;0.60;0.40;;;3.80;99.90;;;;;;5057835;28;20428;-80
2023/12/19 01:51:13;;;;;;;0.90;0.60;;;3.80;99.90;;;;;;5057405;28;20442;-81
2023/12/19 01:53:41;;;;;;;0.70;0.47;;;3.80;99.90;;;;;;5058065;28;20434;-81
2023/12/19 01:56:08;;;;;;;2.07;0.83;;;3.80;99.90;;;;;;5057446;28;20465;-81
2023/12/19 01:58:36;;;;;;;0.50;0.50;;;3.70;99.90;;;;;;5057249;28;20450;-80
2023/12/19 02:01:04;;;;;;;0.87;0.70;;;3.60;99.90;;;;;;5057568;28;20935;-80
2023/12/19 02:03:33;;;;;;;1.07;0.97;;;3.50;99.90;;;;;;5057491;28;20545;-81
2023/12/19 02:06:00;;;;;;;0.67;0.67;;;3.40;99.90;;;;;;5058488;28;20481;-80
2023/12/19 02:08:27;;;;;;;0.87;0.80;;;3.30;99.90;;;;;;5070108;28;20466;-80
2023/12/19 02:10:54;;;;;;;0.40;0.33;;;3.30;99.90;;;;;;5055148;28;20492;-81
2023/12/19 02:13:22;;;;;;;1.80;0.60;;;3.30;99.90;;;;;;5056553;28;20446;-81
2023/12/19 02:15:49;;;;;;;0.53;0.53;;;3.30;99.90;;;;;;5056201;28;20500;-81
2023/12/19 02:18:17;;;;;;;0.60;0.60;;;3.30;99.90;;;;;;5056687;28;21000;-81
2023/12/19 02:20:45;;;;;;;0.90;0.50;;;3.30;99.90;;;;;;5057105;28;20449;-80
2023/12/19 02:23:13;;;;;;;0.60;0.60;;;3.30;99.90;;;;;;5056612;28;20453;-81
2023/12/19 02:25:40;;;;;;;0.67;0.50;;;3.40;99.90;;;;;;5056408;28;20478;-81
2023/12/19 02:28:08;;;;;;;0.50;0.50;;;3.40;99.90;;;;;;5056394;28;20485;-80
2023/12/19 02:30:35;;;;;;;0.90;0.63;;;3.40;99.90;;;;;;5056610;28;20434;-80
2023/12/19 02:33:02;;;;;;;1.00;0.90;;;3.50;99.90;;;;;;5056812;28;20430;-81
2023/12/19 02:35:29;;;;;;;0.40;0.40;;;3.50;99.90;;;;;;5056603;28;20464;-81
2023/12/19 02:37:56;;;;;;;0.50;0.40;;;3.50;99.90;;;;;;5056520;28;20470;-81
2023/12/19 02:40:24;;;;;;;1.90;0.50;;;3.50;99.90;;;;;;5056455;28;20446;-81
2023/12/19 02:42:51;;;;;;;0.40;0.40;;;3.50;99.90;;;;;;5056375;28;20434;-81
2023/12/19 02:45:18;;;;;;;0.40;0.30;;;3.50;99.90;;;;;;5055789;28;20438;-82
2023/12/19 02:47:45;;;;;;;0.50;0.50;;;3.50;99.90;;;;;;5056314;28;20819;-80
2023/12/19 02:50:12;;;;;;;0.50;0.50;;;3.50;99.90;;;;;;5056210;28;20454;-81
2023/12/19 02:52:38;;;;;;;0.57;0.57;;;3.50;99.90;;;;;;5056051;28;20496;-80
2023/12/19 02:55:06;;;;;;;0.80;0.50;;;3.50;99.90;;;;;;5056130;28;20815;-81
2023/12/19 02:57:34;;;;;;;0.60;0.60;;;3.50;99.90;;;;;;5055709;28;20462;-82
2023/12/19 03:00:01;;;;;;;0.80;0.50;;;3.60;99.90;;;;;;5056602;28;20436;-81
2023/12/19 03:02:28;;;;;;;2.70;0.80;;;3.60;99.90;;;;;;5056225;28;20477;-80
2023/12/19 03:04:55;;;;;;;0.40;0.40;;;3.60;99.90;;;;;;5056041;28;20453;-81
2023/12/19 03:07:22;;;;;;;2.27;0.80;;;3.70;99.90;;;;;;5055401;28;20493;-81
2023/12/19 03:09:49;;;;;;;1.00;1.00;;;3.70;99.90;;;;;;5055898;28;20446;-81
2023/12/19 03:12:16;;;;;;;0.40;0.30;;;3.70;99.90;;;;;;5055888;28;20438;-81
2023/12/19 03:14:44;;;;;;;0.47;0.40;;;3.70;99.90;;;;;;5055534;28;20456;-81
2023/12/19 03:17:12;;;;;;;0.60;0.60;;;3.70;99.90;;;;;;5056230;28;20823;-81
2023/12/19 03:19:39;;;;;;;0.40;0.30;;;3.70;99.90;;;;;;5056092;28;20496;-81
2023/12/19 03:22:05;;;;;;;0.40;0.40;;;3.70;99.90;;;;;;5055652;28;20430;-81
2023/12/19 03:24:32;;;;;;;1.07;0.60;;;3.70;99.90;;;;;;5056018;28;20442;-81
2023/12/19 03:26:59;;;;;;;0.53;0.53;;;3.70;99.90;;;;;;5056013;28;20504;-81
2023/12/19 03:29:26;;;;;;;1.80;0.80;;;3.70;99.90;;;;;;5055922;28;20957;-81
2023/12/19 03:31:54;;;;;;;1.43;0.90;;;3.70;99.90;;;;;;5055830;28;20449;-82
2023/12/19 03:34:21;;;;;;;0.70;0.47;;;3.70;99.90;;;;;;5055652;28;20433;-81
2023/12/19 03:36:47;;;;;;;2.40;0.60;;;3.50;99.90;;;;;;5055719;28;20458;-81
2023/12/19 03:39:14;;;;;;;0.47;0.47;;;3.30;99.90;;;;;;5055891;28;20442;-80
2023/12/19 03:41:41;;;;;;;0.60;0.60;;;3.20;99.90;;;;;;5056118;28;20442;-81
2023/12/19 03:44:08;;;;;;;0.83;0.80;;;3.10;99.90;;;;;;5055901;28;20504;-80
2023/12/19 03:46:35;;;;;;;0.40;0.40;;;2.90;99.90;;;;;;5055647;28;20489;-80
2023/12/19 03:49:03;;;;;;;1.13;0.53;;;2.90;99.90;;;;;;5055990;28;20923;-80
2023/12/19 03:51:30;;;;;;;0.50;0.50;;;2.80;99.90;;;;;;5055563;28;20450;-80
2023/12/19 03:53:57;;;;;;;0.50;0.40;;;2.80;99.90;;;;;;5055838;28;20442;-80
2023/12/19 03:56:23;;;;;;;1.03;0.83;;;2.70;99.90;;;;;;5058514;28;20799;-80
2023/12/19 03:58:50;;;;;;;0.67;0.40;;;2.70;99.90;;;;;;5060194;28;20801;-80
2023/12/19 04:01:18;;;;;;;3.03;0.80;;;2.70;99.90;;;;;;5059743;28;20453;-80
2023/12/19 04:03:45;;;;;;;0.70;0.70;;;2.70;99.90;;;;;;5059915;28;20959;-81
2023/12/19 04:06:13;;;;;;;0.40;0.40;;;2.80;99.90;;;;;;5059729;28;20477;-81
2023/12/19 04:08:40;;;;;;;0.80;0.80;;;2.80;99.90;;;;;;5059896;28;20446;-80
2023/12/19 04:11:07;;;;;;;1.00;0.90;;;2.90;99.90;;;;;;5059822;28;20452;-79
2023/12/19 04:13:33;;;;;;;1.20;0.40;;;2.90;99.90;;;;;;5059512;28;20449;-81
2023/12/19 04:16:00;;;;;;;1.33;0.60;;;2.90;99.90;;;;;;5060001;28;20446;-80
2023/12/19 04:18:27;;;;;;;0.57;0.57;;;2.90;99.90;;;;;;5062767;28;20458;-80
2023/12/19 04:20:54;;;;;;;0.30;0.30;;;2.90;99.90;;;;;;5073585;28;20454;-79
2023/12/19 04:23:22;;;;;;;0.70;0.70;;;3.00;99.90;;;;;;5057609;28;20450;-80
2023/12/19 04:25:48;;;;;;;0.77;0.47;;;2.90;99.90;;;;;;5058468;28;20456;-80
2023/12/19 04:28:15;;;;;;;0.50;0.50;;;2.90;99.90;;;;;;5058932;28;20824;-80
2023/12/19 04:30:42;;;;;;;0.50;0.50;;;3.00;99.90;;;;;;5058459;28;20454;-80
2023/12/19 04:33:09;;;;;;;1.63;1.53;;;3.00;99.90;;;;;;5058844;28;20495;-80
2023/12/19 04:35:35;;;;;;;1.90;1.47;;;2.90;99.90;;;;;;5058994;28;20618;-80
2023/12/19 04:38:03;;;;;;;2.00;0.50;;;3.00;99.90;;;;;;5058858;28;20465;-80
2023/12/19 04:40:32;;;;;;;0.40;0.40;;;3.00;99.90;;;;;;5058850;28;20438;-81
2023/12/19 04:42:59;;;;;;;0.40;0.40;;;3.00;99.90;;;;;;5058589;28;20532;-79
2023/12/19 04:45:26;;;;;;;0.57;0.57;;;3.10;99.90;;;;;;5059270;28;20445;-80
2023/12/19 04:47:53;;;;;;;1.57;0.87;;;3.00;99.90;;;;;;5058606;28;20486;-80
2023/12/19 04:50:19;;;;;;;2.40;0.63;;;3.00;99.90;;;;;;5058625;28;20441;-80
2023/12/19 04:52:46;;;;;;;0.40;0.30;;;3.00;99.90;;;;;;5058584;28;20446;-80
2023/12/19 04:55:13;;;;;;;0.60;0.50;;;3.10;99.90;;;;;;5058643;28;20958;-80
2023/12/19 04:57:41;;;;;;;0.30;0.30;;;3.00;99.90;;;;;;5058819;28;20465;-81
2023/12/19 05:00:09;;;;;;;0.30;0.30;;;3.00;99.90;;;;;;5059238;28;20445;-81
2023/12/19 05:02:35;;;;;;;1.00;0.70;;;3.00;99.90;;;;;;5059082;28;20441;-80
2023/12/19 05:05:02;;;;;;;0.57;0.40;;;3.00;99.90;;;;;;5058683;28;20509;-80
2023/12/19 05:07:31;;;;;;;1.40;0.57;;;3.00;99.90;;;;;;5057584;28;20914;-80
2023/12/19 05:09:58;;;;;;;0.50;0.50;;;3.00;99.90;;;;;;5058650;28;20989;-80
2023/12/19 05:12:25;;;;;;;0.40;0.33;;;3.00;99.90;;;;;;5058286;28;20454;-81
2023/12/19 05:14:53;;;;;;;0.83;0.50;;;3.00;99.90;;;;;;5058859;28;20461;-81
2023/12/19 05:17:20;;;;;;;2.00;0.97;;;3.00;99.90;;;;;;5058517;28;20460;-81
2023/12/19 05:19:46;;;;;;;0.40;0.40;;;3.00;99.90;;;;;;5058801;28;20441;-80
2023/12/19 05:22:13;;;;;;;1.27;0.80;;;2.90;99.90;;;;;;5058097;28;20444;-80
2023/12/19 05:24:42;;;;;;;0.50;0.33;;;2.80;99.90;;;;;;5058351;28;20816;-81
2023/12/19 05:27:09;;;;;;;0.53;0.47;;;2.80;99.90;;;;;;5058172;28;20481;-80
2023/12/19 05:29:36;;;;;;;0.50;0.50;;;2.70;99.90;;;;;;5057896;28;20446;-80
2023/12/19 05:32:04;;;;;;;0.40;0.33;;;2.80;99.90;;;;;;5058542;28;20446;-80
2023/12/19 05:34:31;;;;;;;1.27;0.30;;;2.80;99.90;;;;;;5057937;28;20931;-81
2023/12/19 05:36:58;;;;;;;0.60;0.40;;;2.80;99.90;;;;;;5057973;28;20986;-81
2023/12/19 05:39:25;;;;;;;0.50;0.50;;;2.80;99.90;;;;;;5058043;28;20446;-80
2023/12/19 05:41:56;;;;;;;0.50;0.50;;;2.80;99.90;;;;;;5058235;28;20472;-81
2023/12/19 05:44:23;;;;;;;0.80;0.80;;;2.80;99.90;;;;;;5058442;28;20800;-81
2023/12/19 05:46:50;;;;;;;0.40;0.40;;;2.80;99.90;;;;;;5057740;28;20496;-81
2023/12/19 05:49:19;;;;;;;1.80;0.90;;;2.90;99.90;;;;;;5058035;28;20820;-79
2023/12/19 05:51:46;;;;;;;0.40;0.40;;;2.90;99.90;;;;;;5057880;28;20450;-80
2023/12/19 05:54:12;;;;;;;1.57;0.47;;;2.90;99.90;;;;;;5058372;28;20958;-81
2023/12/19 05:56:39;;;;;;;0.80;0.60;;;2.90;99.90;;;;;;5057277;28;20472;-80
2023/12/19 05:59:06;;;;;;;0.70;0.60;;;2.90;99.90;;;;;;5057385;28;20798;-80
2023/12/19 06:01:33;;;;;;;0.40;0.40;;;2.80;99.90;;;;;;5057463;28;20446;-80
2023/12/19 06:04:01;;;;;;;0.77;0.47;;;2.80;99.90;;;;;;5057094;28;20446;-80
2023/12/19 06:06:29;;;;;;;2.83;0.90;;;2.80;99.90;;;;;;5056621;28;20504;-80
2023/12/19 06:08:56;;;;;;;0.50;0.33;;;2.80;99.90;;;;;;5057408;28;20430;-80
2023/12/19 06:11:27;;;;;;;6.03;0.67;;;2.80;99.90;;;;;;5057339;28;20854;-80
2023/12/19 06:13:54;;;;;;;1.70;0.70;;;2.80;99.90;;;;;;5057042;28;20450;-79
2023/12/19 06:16:20;;;;;;;1.03;0.37;;;2.80;99.90;;;;;;5057583;28;20446;-80
2023/12/19 06:18:47;;;;;;;0.43;0.40;;;2.80;99.90;;;;;;5055894;28;20461;-80
2023/12/19 06:21:14;;;;;;;0.97;0.40;;;2.80;99.90;;;;;;5057161;28;20450;-80
2023/12/19 06:23:42;;;;;;;0.50;0.50;;;2.80;99.90;;;;;;5057061;28;20446;-79
2023/12/19 06:26:09;;;;;;;0.97;0.87;;;2.80;99.90;;;;;;5057265;28;20445;-80
2023/12/19 06:28:37;;;;;;;0.40;0.40;;;2.70;99.90;;;;;;5056538;28;20481;-80
2023/12/19 06:31:05;;;;;;;2.13;0.80;;;2.70;99.90;;;;;;5057552;28;20473;-79
2023/12/19 06:33:31;;;;;;;2.30;1.23;;;2.80;99.90;;;;;;5061806;28;20499;-79
2023/12/19 06:35:58;;;;;;;1.07;0.40;;;2.70;99.90;;;;;;5062932;28;20442;-80
2023/12/19 06:38:25;;;;;;;1.03;1.03;;;2.70;99.90;;;;;;5055353;28;20469;-79
2023/12/19 06:40:53;;;;;;;0.80;0.40;;;2.80;99.90;;;;;;5055965;28;20938;-79
2023/12/19 06:43:20;;;;;;;1.13;0.80;;;2.70;99.90;;;;;;5056390;28;20434;-79
2023/12/19 06:45:46;;;;;;;0.50;0.50;;;2.70;99.90;;;;;;5056828;28;20450;-80
2023/12/19 06:48:14;;;;;;;1.67;0.53;;;2.70;99.90;;;;;;5056600;28;20481;-79
2023/12/19 06:50:40;;;;;;;0.40;0.33;;;2.60;99.90;;;;;;5056381;28;20532;-80
2023/12/19 06:53:07;;;;;;;0.70;0.50;;;2.60;99.90;;;;;;5057164;28;20438;-80
2023/12/19 06:55:34;;;;;;;0.50;0.50;;;2.50;99.90;;;;;;5056896;28;20445;-79
2023/12/19 06:58:02;;;;;;;0.50;0.50;;;2.50;99.90;;;;;;5056825;28;20473;-80
2023/12/19 07:00:29;;;;;;;2.20;0.63;;;2.50;99.90;;;;;;5056975;28;20434;-80
2023/12/19 07:02:56;;;;;;;0.70;0.53;;;2.40;99.90;;;;;;5057077;28;20981;-80
2023/12/19 07:05:23;;;;;;;0.80;0.73;;;2.20;99.90;;;;;;5056346;28;20450;-79
2023/12/19 07:07:51;;;;;;;0.90;0.60;;;2.20;99.90;;;;;;5056336;28;20497;-79
2023/12/19 07:10:19;;;;;;;3.17;0.77;;;2.10;99.90;;;;;;5056783;28;21012;-79
2023/12/19 07:12:45;;;;;;;0.50;0.47;;;2.10;99.90;;;;;;5057208;28;21004;-79
2023/12/19 07:15:14;;;;;;;0.73;0.60;;;2.00;99.90;;;;;;5057107;28;20446;-79
2023/12/19 07:17:41;;;;;;;2.40;0.87;;;1.90;99.90;;;;;;5058152;28;20489;-79
2023/12/19 07:20:09;;;;;;;0.40;0.40;;;1.90;99.90;;;;;;5057035;28;20440;-78
2023/12/19 07:22:36;;;;;;;1.37;0.67;;;1.90;99.90;;;;;;5057522;28;20550;-79
2023/12/19 07:25:03;;;;;;;0.90;0.73;;;2.00;99.90;;;;;;5056199;28;20939;-79
2023/12/19 07:27:31;;;;;;;0.30;0.30;;;2.00;99.90;;;;;;5056413;28;20485;-79
2023/12/19 07:29:58;;;;;;;6.60;0.60;;;2.10;99.90;;;;;;5056550;28;20430;-79
2023/12/19 07:32:26;;;;;;;0.70;0.70;;;2.20;99.90;;;;;;5056600;28;20445;-79
2023/12/19 07:34:53;;;;;;;0.70;0.50;;;2.10;99.90;;;;;;5056765;28;20823;-79
2023/12/19 07:37:20;;;;;;;0.40;0.40;;;2.10;99.90;;;;;;5056500;28;20461;-79
2023/12/19 07:39:47;;;;;;;0.50;0.50;;;2.10;99.90;;;;;;5056454;28;20445;-79
2023/12/19 07:42:14;;;;;;;0.70;0.70;;;2.10;99.90;;;;;;5056461;28;20450;-79
2023/12/19 07:44:41;;;;;;;0.40;0.40;;;2.10;99.90;;;;;;5056981;28;20445;-79
2023/12/19 07:47:07;;;;;;;0.80;0.80;;;2.00;99.90;;;;;;5057180;28;20485;-79
2023/12/19 07:49:36;;;;;;;0.87;0.87;;;2.00;99.90;;;;;;5056925;28;20438;-79
2023/12/19 07:52:03;;;;;;;2.80;1.20;;;2.00;99.90;;;;;;5057131;28;20537;-79
2023/12/19 07:54:30;;;;;;;0.30;0.30;;;2.00;99.90;;;;;;5057035;28;20528;-79
2023/12/19 07:56:59;;;;;;;0.97;0.50;;;2.00;99.90;;;;;;5057007;28;20519;-79
2023/12/19 07:59:26;;;;;;;2.03;0.83;;;2.10;99.90;;;;;;5056810;28;20501;-79
2023/12/19 08:01:52;;;;;;;1.23;0.70;;;2.10;99.90;;;;;;5056667;28;20438;-80
2023/12/19 08:04:19;;;;;;;0.80;0.80;;;2.10;99.90;;;;;;5056977;28;20456;-80
2023/12/19 08:06:48;;;;;;;2.50;0.90;;;2.10;99.90;;;;;;5056861;28;20500;-80
2023/12/19 08:09:15;;;;;;;1.07;0.67;;;2.00;99.90;;;;;;5056786;28;20784;-79
2023/12/19 08:11:42;;;;;;;1.40;0.93;;;2.10;99.90;;;;;;5056652;28;20800;-80
2023/12/19 08:14:09;;;;;;;1.03;0.50;;;2.20;99.90;;;;;;5056253;28;20495;-79
2023/12/19 08:16:37;;;;;;;1.47;1.13;;;2.20;99.90;;;;;;5055247;28;20466;-79
2023/12/19 08:19:04;;;;;;;0.67;0.67;;;2.10;99.90;;;;;;5056602;28;20440;-79
2023/12/19 08:21:32;;;;;;;6.23;0.60;;;2.10;99.90;;;;;;5056158;28;20450;-79
2023/12/19 08:24:00;;;;;;;1.37;0.50;;;2.20;99.90;;;;;;5056061;28;20481;-79
2023/12/19 08:26:27;;;;;;;0.60;0.33;;;2.20;99.90;;;;;;5056498;28;20444;-80
2023/12/19 08:28:53;;;;;;;0.70;0.70;;;2.20;99.90;;;;;;5055984;28;20480;-79
2023/12/19 08:31:21;;;;;;;0.40;0.40;;;2.20;99.90;;;;;;5055954;28;20454;-79
2023/12/19 08:33:47;;;;;;;2.90;1.20;;;2.20;99.90;;;;;;5056265;28;20501;-79
2023/12/19 08:36:14;;;;;;;0.60;0.60;;;2.30;99.90;;;;;;5055635;28;20807;-80
2023/12/19 08:38:43;;;;;;;6.30;0.80;;;2.30;99.90;;;;;;5055262;28;20442;-80
2023/12/19 08:41:11;;;;;;;0.87;0.87;;;2.30;99.90;;;;;;5055906;28;20450;-79
2023/12/19 08:43:38;;;;;;;0.87;0.60;;;2.20;99.90;;;;;;5058812;28;20890;-79
2023/12/19 08:46:05;;;;;;;1.47;1.23;;;2.20;99.90;;;;;;5061991;28;20436;-79
2023/12/19 08:48:31;;;;;;;0.60;0.60;;;2.30;99.90;;;;;;5071816;28;20499;-79
2023/12/19 08:50:58;;;;;;;3.10;1.37;;;2.40;99.90;;;;;;5057186;28;20434;-78
2023/12/19 08:53:25;;;;;;;3.70;1.07;;;2.50;99.90;;;;;;5058435;28;20456;-79
2023/12/19 08:55:52;;;;;;;1.70;0.97;;;2.60;99.90;;;;;;5058733;28;20449;-79
2023/12/19 08:58:20;;;;;;;4.00;1.13;;;2.60;99.90;;;;;;5058638;28;20474;-79
2023/12/19 09:00:46;;;;;;;0.87;0.50;;;2.70;99.90;;;;;;5058622;28;20445;-79
2023/12/19 09:03:13;;;;;;;0.70;0.60;;;2.70;99.90;;;;;;5058366;28;20447;-79
2023/12/19 09:05:40;;;;;;;0.80;0.77;;;2.80;99.90;;;;;;5058928;28;20453;-80
2023/12/19 09:08:07;;;;;;;1.23;1.13;;;2.90;99.90;;;;;;5058543;28;20497;-80
2023/12/19 09:10:34;;;;;;;2.53;0.80;;;3.00;99.90;;;;;;5058830;28;20454;-80
2023/12/19 09:13:01;;;;;;;0.83;0.83;;;3.10;99.90;;;;;;5058665;28;20423;-80
2023/12/19 09:15:29;;;;;;;1.30;1.20;;;3.20;99.90;;;;;;5058795;28;20496;-80
2023/12/19 09:17:56;;;;;;;1.70;1.60;;;3.30;99.90;;;;;;5057898;28;20469;-80
2023/12/19 09:20:24;;;;;;;0.63;0.63;;;3.50;99.90;;;;;;5058624;28;20449;-80
2023/12/19 09:22:51;;;;;;;2.87;1.03;;;3.70;99.90;;;;;;5058226;28;20456;-80
2023/12/19 09:25:18;;;;;;;0.50;0.50;;;3.90;99.90;;;;;;5058006;28;20496;-80
2023/12/19 09:27:46;;;;;;;0.60;0.60;;;4.00;99.90;;;;;;5056921;28;20481;-82
2023/12/19 09:30:15;;;;;;;1.67;0.83;;;4.20;99.90;;;;;;5057423;28;20450;-83
2023/12/19 09:32:44;;;;;;;0.57;0.57;;;4.40;99.90;;;;;;5057245;28;20954;-81
2023/12/19 09:35:11;;;;;;;1.83;1.70;;;4.60;99.90;;;;;;5057303;28;20450;-82
2023/12/19 09:37:38;;;;;;;1.83;1.23;;;4.70;99.90;;;;;;5057198;28;20462;-82
2023/12/19 09:40:06;;;;;;;1.10;1.00;;;4.90;99.90;;;;;;5057514;28;20453;-83
2023/12/19 09:42:33;;;;;;;1.07;0.93;;;5.10;99.90;;;;;;5057200;28;20453;-85
2023/12/19 09:45:00;;;;;;;0.73;0.73;;;5.40;99.90;;;;;;5056836;28;20452;-82
2023/12/19 09:47:31;;;;;;;1.17;1.07;;;6.20;99.90;;;;;;5056842;28;20801;-82
2023/12/19 09:50:03;;;;;;;1.20;1.10;;;7.60;99.90;;;;;;5056647;28;20414;-82
2023/12/19 09:52:30;;;;;;;1.30;1.10;;;9.10;99.90;;;;;;5055878;28;20438;-82
2023/12/19 09:54:57;;;;;;;2.00;1.27;;;10.50;99.90;;;;;;5055173;28;20812;-80
2023/12/19 09:57:26;;;;;;;4.53;2.20;;;11.40;99.90;;;;;;5055447;28;20580;-80
2023/12/19 09:59:54;;;;;;;1.43;1.17;;;11.70;99.90;;;;;;5055199;28;20442;-80
2023/12/19 10:02:21;;;;;;;3.30;2.03;;;11.40;99.90;;;;;;5055164;28;20453;-81
2023/12/19 10:04:48;;;;;;;2.03;1.40;;;10.80;99.90;;;;;;5054705;28;20452;-81
2023/12/19 10:07:16;;;;;;;1.50;1.40;;;10.40;99.90;;;;;;5054834;28;20513;-81
2023/12/19 10:09:54;;;;;;;3.20;1.30;;;10.00;99.90;;;;;;5054919;28;20489;-81
2023/12/19 10:12:21;;;;;;;2.23;1.83;;;9.60;99.90;;;;;;5054667;28;20953;-80
2023/12/19 10:14:48;;;;;;;3.13;1.60;;;9.10;99.90;;;;;;5055299;28;20450;-81
2023/12/19 10:17:17;;;;;;;1.77;1.40;;;8.70;99.90;;;;;;5055096;28;20511;-81
2023/12/19 10:19:44;;;;;;;3.03;1.47;;;8.40;99.90;;;;;;5054996;28;20489;-81
2023/12/19 10:22:12;;;;;;;4.33;1.60;;;8.00;99.90;;;;;;5054958;28;20969;-81
2023/12/19 10:24:41;;;;;;;1.53;1.27;;;7.60;99.90;;;;;;5055246;28;20484;-81
2023/12/19 10:27:08;;;;;;;2.40;1.60;;;7.40;99.90;;;;;;5055109;28;20515;-81
2023/12/19 10:29:38;;;;;;;5.83;2.00;;;7.10;99.90;;;;;;5055550;28;20826;-83
2023/12/19 10:32:16;;;;;;;6.07;2.10;;;6.90;99.90;;;;;;5056487;28;20832;-83
2023/12/19 10:34:43;;;;;;;1.80;1.53;;;6.70;99.90;;;;;;5055756;28;20950;-82
2023/12/19 10:37:11;;;;;;;1.80;1.70;;;6.60;99.90;;;;;;5056377;28;20465;-84
2023/12/19 10:39:40;;;;;;;2.97;1.77;;;6.50;99.90;;;;;;5056999;28;20860;-82
2023/12/19 10:42:09;;;;;;;3.37;1.80;;;6.30;99.90;;;;;;5057681;28;20453;-83
2023/12/19 10:44:38;;;;;;;2.93;1.40;;;6.10;99.90;;;;;;5057763;28;20473;-83
2023/12/19 10:47:07;;;;;;;1.13;1.00;;;5.90;99.90;;;;;;5057867;28;20481;-83
2023/12/19 10:49:34;;;;;;;2.33;2.13;;;5.60;99.90;;;;;;5057567;28;20473;-83
2023/12/19 10:52:05;;;;;;;1.60;1.50;;;5.50;99.90;;;;;;5057953;28;20456;-83
2023/12/19 10:54:35;;;;;;;1.80;1.70;;;5.20;99.90;;;;;;5057038;28;20982;-82
2023/12/19 10:57:11;;;;;;;5.37;2.30;;;5.00;99.90;;;;;;5057417;28;20496;-83
2023/12/19 10:59:47;;;;;;;1.60;1.47;;;4.90;99.90;;;;;;5057691;28;20433;-82
2023/12/19 11:02:23;;;;;;;6.70;2.43;;;4.80;99.90;;;;;;5058574;28;20942;-83
2023/12/19 11:04:56;;;;;;;3.33;2.23;;;4.70;99.90;;;;;;5064012;28;20433;-81
2023/12/19 11:07:25;;;;;;;1.83;1.73;;;4.60;99.90;;;;;;5067102;28;20489;-82
2023/12/19 11:09:59;;;;;;;4.73;2.33;;;4.50;99.90;;;;;;5054595;28;20881;-82
2023/12/19 11:12:28;;;;;;;2.17;1.50;;;4.40;99.90;;;;;;5054178;28;20990;-83
2023/12/19 11:14:55;;;;;;;1.67;1.53;;;4.30;99.90;;;;;;5055124;28;20454;-82
2023/12/19 11:17:27;;;;;;;1.73;1.63;;;4.20;99.90;;;;;;5055317;28;20470;-82
2023/12/19 11:20:01;;;;;;;2.80;1.97;;;4.20;99.90;;;;;;5055626;28;20431;-83
2023/12/19 11:22:33;;;;;;;7.00;1.80;;;4.10;99.90;;;;;;5054953;28;20466;-83
2023/12/19 11:25:09;;;;;;;4.07;2.60;;;4.10;99.90;;;;;;5055469;28;20429;-83
2023/12/19 11:27:42;;;;;;;2.03;1.90;;;4.10;99.90;;;;;;5055704;28;20501;-82
2023/12/19 11:30:36;;;;;;;2.50;1.70;;;4.20;99.90;;;;;;5055771;28;20488;-82
2023/12/19 11:33:04;;;;;;;3.60;1.80;;;4.30;99.90;;;;;;5054971;28;20445;-83
2023/12/19 11:35:32;;;;;;;2.50;1.60;;;4.40;99.90;;;;;;5055442;28;20946;-83
2023/12/19 11:38:17;;;;;;;6.20;3.27;;;4.50;99.90;;;;;;5055189;28;20469;-82
2023/12/19 11:40:48;;;;;;;9.73;3.00;;;4.50;99.90;;;;;;5055583;28;20441;-82
2023/12/19 11:43:49;;;;;;;6.50;3.33;;;4.50;99.90;;;;;;5056523;28;20445;-84
2023/12/19 11:46:20;;;;;;;2.30;1.87;;;4.40;99.90;;;;;;5056034;28;20460;-82
2023/12/19 11:48:50;;;;;;;3.30;3.00;;;4.30;99.90;;;;;;5055828;28;20481;-81
2023/12/19 11:51:45;;;;;;;2.40;1.90;;;4.40;99.90;;;;;;5055748;28;20456;-80
2023/12/19 11:54:13;;;;;;;4.70;2.40;;;4.40;99.90;;;;;;5056432;28;20452;-80
2023/12/19 11:56:40;;;;;;;2.53;2.33;;;4.30;99.90;;;;;;5055644;28;20462;-81
2023/12/19 11:59:08;;;;;;;2.10;1.70;;;4.30;99.90;;;;;;5055644;28;20441;-80
2023/12/19 12:01:40;;;;;;;4.60;1.90;;;4.30;99.90;;;;;;5055442;28;20923;-81
2023/12/19 12:04:07;;;;;;;2.73;1.90;;;4.40;99.90;;;;;;5055533;28;20517;-82
2023/12/19 12:06:35;;;;;;;3.13;2.13;;;4.50;99.90;;;;;;5055051;28;20480;-81
2023/12/19 12:09:05;;;;;;;5.13;2.13;;;4.70;99.90;;;;;;5055096;28;20473;-81
2023/12/19 12:11:45;;;;;;;2.27;2.07;;;4.80;99.90;;;;;;5055126;28;20472;-80
2023/12/19 12:14:12;;;;;;;3.83;3.43;;;4.90;99.90;;;;;;5055320;28;20422;-81
2023/12/19 12:16:42;;;;;;;3.07;2.30;;;5.00;99.90;;;;;;5056929;28;20544;-81
2023/12/19 12:19:13;;;;;;;6.53;2.77;;;5.00;99.90;;;;;;5058787;28;20445;-82
2023/12/19 12:21:46;;;;;;;5.30;3.63;;;5.00;99.90;;;;;;5058702;28;20442;-82
2023/12/19 12:24:23;;;;;;;2.60;1.70;;;5.00;99.90;;;;;;5058774;28;20441;-80
2023/12/19 12:26:51;;;;;;;2.53;2.30;;;5.00;99.90;;;;;;5059152;28;20449;-81
2023/12/19 12:29:19;;;;;;;5.20;2.20;;;5.00;99.90;;;;;;5058386;28;20870;-81
2023/12/19 12:31:48;;;;;;;9.20;2.97;;;4.90;99.90;;;;;;5058515;28;20488;-81
2023/12/19 12:34:15;;;;;;;6.60;3.43;;;4.80;99.90;;;;;;5058442;28;20449;-81
2023/12/19 12:36:46;;;;;;;1.93;1.83;;;4.80;99.90;;;;;;5058264;28;20499;-81
2023/12/19 12:39:19;;;;;;;4.97;4.23;;;4.80;99.90;;;;;;5058789;28;20497;-81
2023/12/19 12:41:45;;;;;;;4.67;2.57;;;4.80;99.90;;;;;;5059035;28;20434;-80
2023/12/19 12:44:13;;;;;;;4.50;2.03;;;4.80;99.90;;;;;;5058776;28;20449;-81
2023/12/19 12:46:44;;;;;;;2.40;2.20;;;4.80;99.90;;;;;;5058586;28;20466;-81
2023/12/19 12:49:17;;;;;;;2.60;2.10;;;4.80;99.90;;;;;;5058699;28;20466;-81
2023/12/19 12:51:44;;;;;;;5.60;2.80;;;4.80;99.90;;;;;;5058880;28;20430;-81
2023/12/19 12:54:11;;;;;;;5.37;3.40;;;4.80;99.90;;;;;;5058702;28;20449;-80
2023/12/19 12:56:40;;;;;;;4.73;2.40;;;4.70;99.90;;;;;;5058539;28;20515;-80
2023/12/19 12:59:08;;;;;;;4.10;2.87;;;4.70;99.90;;;;;;5058628;28;20447;-80
2023/12/19 13:01:35;;;;;;;3.73;2.80;;;4.70;99.90;;;;;;5058511;28;20872;-81